Time;durP1;ratioP1;P1;durP2;ratioP2;P2;SDS_P1;SDS_P2;PMS_P1;PMS_P2;Temp;Humidity;BMP_temperature;BMP_pressure;BME280_temperature;BME280_humidity;BME280_pressure;Samples;Min_cycle;Max_cycle;Signal;HPM_P1;HPM_P2
2022/09/02 00:01:28;;;;;;;2.80;2.03;;;19.70;55.20;;;;;;5060509;28;20480;-44
2022/09/02 00:03:57;;;;;;;2.73;2.23;;;19.70;55.30;;;;;;5076775;28;20456;-44
2022/09/02 00:06:27;;;;;;;3.43;2.17;;;19.70;55.40;;;;;;5076938;28;20467;-44
2022/09/02 00:08:53;;;;;;;4.87;2.83;;;19.90;56.50;;;;;;5068569;28;20472;-44
2022/09/02 00:11:26;;;;;;;3.33;2.43;;;20.00;56.50;;;;;;5075906;28;21580;-44
2022/09/02 00:13:55;;;;;;;2.83;2.27;;;20.10;56.50;;;;;;5072358;28;20460;-44
2022/09/02 00:16:23;;;;;;;3.30;2.47;;;20.10;56.30;;;;;;5075067;28;21373;-44
2022/09/02 00:18:52;;;;;;;2.83;2.40;;;20.10;56.30;;;;;;5065575;28;20502;-44
2022/09/02 00:21:20;;;;;;;3.30;2.23;;;20.10;56.60;;;;;;5075278;28;21104;-44
2022/09/02 00:23:48;;;;;;;2.03;1.90;;;20.00;56.80;;;;;;5062194;28;20958;-44
2022/09/02 00:26:16;;;;;;;3.13;2.23;;;20.00;57.20;;;;;;5060260;28;20958;-44
2022/09/02 00:28:43;;;;;;;4.37;2.83;;;20.00;57.50;;;;;;5079805;28;20841;-44
2022/09/02 00:31:16;;;;;;;3.90;2.50;;;19.90;57.60;;;;;;5079337;28;20551;-44
2022/09/02 00:33:43;;;;;;;2.70;2.50;;;19.90;57.70;;;;;;5079899;28;20461;-44
2022/09/02 00:36:10;;;;;;;2.00;1.90;;;19.90;57.30;;;;;;5081674;28;20457;-44
2022/09/02 00:38:38;;;;;;;2.00;1.80;;;19.80;57.30;;;;;;5070018;28;20460;-45
2022/09/02 00:41:08;;;;;;;2.80;2.33;;;19.70;58.10;;;;;;5066126;28;20994;-44
2022/09/02 00:43:40;;;;;;;3.10;2.00;;;19.60;57.70;;;;;;5067757;28;20457;-44
2022/09/02 00:46:08;;;;;;;2.33;2.13;;;19.60;57.80;;;;;;5065200;28;21215;-44
2022/09/02 00:48:40;;;;;;;2.87;2.50;;;19.60;58.30;;;;;;5081431;28;20460;-44
2022/09/02 00:51:09;;;;;;;2.40;2.20;;;19.60;58.40;;;;;;5084248;28;21012;-44
2022/09/02 00:53:38;;;;;;;2.17;2.07;;;19.60;58.30;;;;;;5082577;28;20461;-44
2022/09/02 00:56:11;;;;;;;2.77;2.57;;;19.70;58.70;;;;;;5064819;28;20815;-44
2022/09/02 00:58:39;;;;;;;2.20;2.00;;;19.70;58.30;;;;;;5082349;28;20487;-44
2022/09/02 01:01:10;;;;;;;2.80;2.60;;;19.70;58.40;;;;;;5064325;28;20485;-44
2022/09/02 01:03:39;;;;;;;2.50;2.27;;;19.70;58.50;;;;;;5083612;28;20448;-44
2022/09/02 01:06:07;;;;;;;2.30;2.03;;;19.70;58.30;;;;;;5083186;28;20460;-44
2022/09/02 01:08:37;;;;;;;3.37;2.17;;;19.60;58.70;;;;;;5076300;28;20870;-44
2022/09/02 01:11:04;;;;;;;3.60;2.17;;;19.60;58.60;;;;;;5061542;28;20445;-44
2022/09/02 01:13:37;;;;;;;2.20;2.07;;;19.40;58.20;;;;;;5070701;28;20494;-44
2022/09/02 01:16:24;;;;;;;1.77;1.67;;;19.40;59.20;;;;;;5066349;28;20478;-44
2022/09/02 01:18:54;;;;;;;2.70;2.50;;;19.40;59.00;;;;;;5079994;28;20993;-45
2022/09/02 01:21:22;;;;;;;2.40;2.20;;;19.30;59.00;;;;;;5083241;28;20488;-44
2022/09/02 01:23:50;;;;;;;2.30;2.03;;;19.30;59.50;;;;;;5082830;28;20468;-44
2022/09/02 01:26:17;;;;;;;3.00;2.20;;;19.20;59.20;;;;;;5081272;28;20544;-44
2022/09/02 01:28:43;;;;;;;3.00;2.30;;;19.30;59.20;;;;;;5064276;28;20445;-44
2022/09/02 01:31:10;;;;;;;2.77;1.63;;;19.30;59.70;;;;;;5084988;28;20464;-44
2022/09/02 01:33:37;;;;;;;2.50;2.30;;;19.30;57.80;;;;;;5082801;28;20829;-44
2022/09/02 01:36:04;;;;;;;11.73;2.57;;;19.30;58.80;;;;;;5084226;28;20495;-44
2022/09/02 01:38:31;;;;;;;2.87;1.93;;;19.40;58.50;;;;;;5080120;28;20453;-44
2022/09/02 01:40:58;;;;;;;2.23;2.03;;;19.40;58.60;;;;;;5063150;28;20467;-44
2022/09/02 01:43:26;;;;;;;2.67;2.23;;;19.30;58.70;;;;;;5081281;28;20855;-44
2022/09/02 01:45:56;;;;;;;4.00;1.80;;;19.30;59.20;;;;;;5080069;28;20931;-44
2022/09/02 01:48:23;;;;;;;3.53;2.20;;;19.30;59.10;;;;;;5065811;28;20453;-44
2022/09/02 01:50:54;;;;;;;2.27;1.80;;;19.30;59.20;;;;;;5083056;28;20456;-44
2022/09/02 01:53:21;;;;;;;2.17;1.97;;;19.20;59.50;;;;;;5062592;28;20461;-44
2022/09/02 01:55:49;;;;;;;2.37;2.10;;;19.20;60.00;;;;;;5082263;28;20461;-44
2022/09/02 01:58:16;;;;;;;2.07;1.87;;;19.20;59.50;;;;;;5062642;28;20496;-44
2022/09/02 02:00:43;;;;;;;3.90;1.97;;;19.20;59.50;;;;;;5080320;28;20535;-44
2022/09/02 02:03:09;;;;;;;2.67;2.27;;;19.10;59.80;;;;;;5066254;28;20541;-44
2022/09/02 02:05:37;;;;;;;2.30;1.87;;;19.10;59.90;;;;;;5083726;28;20961;-44
2022/09/02 02:08:04;;;;;;;2.67;2.00;;;19.00;60.00;;;;;;5067972;28;20469;-44
2022/09/02 02:10:32;;;;;;;1.90;1.80;;;19.00;60.30;;;;;;5084443;28;20463;-44
2022/09/02 02:13:00;;;;;;;2.10;1.90;;;18.90;59.10;;;;;;5082920;28;20861;-44
2022/09/02 02:15:27;;;;;;;3.60;1.97;;;18.70;59.60;;;;;;5084280;28;20958;-44
2022/09/02 02:17:53;;;;;;;2.70;2.03;;;18.60;60.40;;;;;;5079518;28;20454;-44
2022/09/02 02:20:20;;;;;;;3.43;2.07;;;18.60;60.20;;;;;;5082432;28;20308;-44
2022/09/02 02:22:47;;;;;;;2.50;2.13;;;18.60;61.70;;;;;;5079126;28;20484;-44
2022/09/02 02:25:15;;;;;;;3.47;1.90;;;18.60;61.20;;;;;;5081958;28;20457;-44
2022/09/02 02:27:43;;;;;;;1.93;1.67;;;18.60;60.10;;;;;;5065485;28;20969;-44
2022/09/02 02:30:13;;;;;;;2.33;2.13;;;18.60;60.60;;;;;;5082028;28;20458;-44
2022/09/02 02:32:41;;;;;;;2.20;2.00;;;18.60;59.60;;;;;;5078290;28;20461;-44
2022/09/02 02:35:10;;;;;;;2.13;1.93;;;18.50;60.00;;;;;;5067079;28;20484;-44
2022/09/02 02:37:37;;;;;;;2.50;2.30;;;18.50;59.50;;;;;;5083711;28;20496;-44
2022/09/02 02:40:06;;;;;;;3.47;2.40;;;18.40;59.60;;;;;;5083694;28;20851;-44
2022/09/02 02:42:34;;;;;;;4.27;2.00;;;18.30;59.80;;;;;;5068510;28;20488;-44
2022/09/02 02:45:01;;;;;;;3.03;2.10;;;18.30;59.90;;;;;;5064354;28;20452;-44
2022/09/02 02:47:28;;;;;;;1.83;1.70;;;18.40;59.80;;;;;;5073432;28;20981;-44
2022/09/02 02:49:54;;;;;;;2.23;1.90;;;18.40;60.20;;;;;;5069166;28;20469;-44
2022/09/02 02:52:21;;;;;;;3.27;1.97;;;18.40;60.00;;;;;;5079109;28;20465;-44
2022/09/02 02:54:48;;;;;;;2.63;2.17;;;18.50;61.20;;;;;;5081230;28;20466;-44
2022/09/02 02:57:14;;;;;;;3.33;2.50;;;18.70;60.90;;;;;;5063846;28;20487;-44
2022/09/02 02:59:41;;;;;;;3.07;2.10;;;18.60;59.00;;;;;;5075127;28;20457;-44
2022/09/02 03:02:08;;;;;;;2.23;1.90;;;18.60;59.00;;;;;;5082216;28;20477;-44
2022/09/02 03:04:35;;;;;;;3.33;1.87;;;18.50;59.50;;;;;;5060454;28;20523;-44
2022/09/02 03:07:02;;;;;;;3.83;2.47;;;18.40;59.60;;;;;;5074317;28;20456;-44
2022/09/02 03:09:30;;;;;;;2.20;2.00;;;18.40;59.70;;;;;;5056767;28;20477;-44
2022/09/02 03:11:57;;;;;;;6.30;2.47;;;18.40;59.80;;;;;;5057873;28;20463;-44
2022/09/02 03:14:24;;;;;;;2.60;1.70;;;18.20;59.70;;;;;;5062351;28;20474;-44
2022/09/02 03:16:51;;;;;;;2.50;2.23;;;18.20;60.00;;;;;;5083749;28;20484;-44
2022/09/02 03:19:18;;;;;;;2.27;2.07;;;18.20;59.70;;;;;;5080102;28;20473;-44
2022/09/02 03:21:45;;;;;;;2.40;1.90;;;18.30;59.80;;;;;;5058275;28;20894;-44
2022/09/02 03:24:12;;;;;;;3.80;2.10;;;18.50;60.80;;;;;;5062039;28;20453;-44
2022/09/02 03:26:40;;;;;;;5.13;2.20;;;18.50;60.90;;;;;;5064284;28;20506;-44
2022/09/02 03:29:07;;;;;;;2.20;2.00;;;18.60;60.60;;;;;;5056486;28;20453;-44
2022/09/02 03:31:34;;;;;;;2.60;2.40;;;18.70;59.60;;;;;;5082102;28;20803;-44
2022/09/02 03:34:02;;;;;;;2.57;1.80;;;18.60;61.00;;;;;;5077788;28;20457;-44
2022/09/02 03:36:32;;;;;;;2.27;1.60;;;18.60;60.50;;;;;;5082417;28;20457;-44
2022/09/02 03:39:01;;;;;;;2.37;1.70;;;18.60;60.30;;;;;;5076505;28;20457;-44
2022/09/02 03:41:27;;;;;;;3.53;1.90;;;18.40;60.00;;;;;;5078833;28;20942;-44
2022/09/02 03:43:56;;;;;;;2.87;2.20;;;18.30;60.10;;;;;;5081611;28;20878;-44
2022/09/02 03:46:23;;;;;;;3.10;2.20;;;18.30;60.20;;;;;;5079227;28;20518;-44
2022/09/02 03:48:50;;;;;;;3.43;2.10;;;18.30;60.30;;;;;;5064443;28;20529;-44
2022/09/02 03:51:21;;;;;;;3.23;2.70;;;18.30;60.90;;;;;;5062397;28;20937;-44
2022/09/02 03:53:48;;;;;;;2.23;2.03;;;18.40;61.10;;;;;;5060581;28;20471;-44
2022/09/02 03:56:16;;;;;;;3.17;2.00;;;18.30;61.10;;;;;;5081014;28;20460;-44
2022/09/02 03:58:44;;;;;;;2.33;2.10;;;18.40;60.90;;;;;;5060005;28;20516;-44
2022/09/02 04:01:14;;;;;;;2.50;2.30;;;18.40;61.10;;;;;;5080597;28;20465;-44
2022/09/02 04:03:42;;;;;;;2.03;1.90;;;18.40;60.90;;;;;;5061062;28;20537;-44
2022/09/02 04:06:11;;;;;;;2.37;2.17;;;18.30;60.10;;;;;;5062578;28;20809;-44
2022/09/02 04:08:40;;;;;;;1.97;1.87;;;18.20;61.30;;;;;;5076264;28;20467;-44
2022/09/02 04:11:08;;;;;;;2.30;2.10;;;18.30;61.60;;;;;;5077983;28;20473;-44
2022/09/02 04:13:35;;;;;;;2.10;1.90;;;18.30;61.20;;;;;;5082141;28;20464;-44
2022/09/02 04:16:08;;;;;;;3.07;2.27;;;18.10;60.30;;;;;;5080768;28;20462;-44
2022/09/02 04:21:59;;;;;;;2.33;2.10;;;17.90;61.40;;;;;;5080048;28;20864;-44
2022/09/02 04:24:26;;;;;;;7.73;2.57;;;17.90;61.70;;;;;;5084058;28;20996;-44
2022/09/02 04:26:53;;;;;;;2.13;2.03;;;18.00;62.50;;;;;;5086995;28;20449;-44
2022/09/02 04:29:19;;;;;;;3.20;2.57;;;18.00;60.90;;;;;;5067582;28;20463;-44
2022/09/02 04:31:46;;;;;;;2.53;2.33;;;17.90;61.30;;;;;;5065265;28;20460;-44
2022/09/02 04:34:13;;;;;;;2.50;2.10;;;17.90;62.50;;;;;;5059387;28;20852;-43
2022/09/02 04:36:40;;;;;;;2.70;2.30;;;18.10;62.20;;;;;;5080432;28;21096;-43
2022/09/02 04:39:08;;;;;;;1.90;1.80;;;18.10;62.20;;;;;;5085751;28;20462;-43
2022/09/02 04:41:36;;;;;;;2.83;2.10;;;18.10;62.00;;;;;;5065594;28;20461;-43
2022/09/02 04:44:03;;;;;;;2.60;2.20;;;18.10;62.40;;;;;;5082574;28;20461;-44
2022/09/02 04:46:30;;;;;;;4.77;1.77;;;18.10;62.30;;;;;;5080380;28;20453;-44
2022/09/02 04:49:02;;;;;;;2.60;2.13;;;18.10;62.60;;;;;;5084421;28;20456;-44
2022/09/02 04:51:29;;;;;;;2.43;2.23;;;18.10;61.90;;;;;;5081397;28;20464;-44
2022/09/02 04:53:56;;;;;;;2.27;2.07;;;18.10;62.40;;;;;;5077480;28;20917;-44
2022/09/02 04:56:26;;;;;;;3.87;2.13;;;18.10;62.50;;;;;;5061590;28;20453;-44
2022/09/02 04:58:54;;;;;;;2.77;2.30;;;18.10;62.60;;;;;;5050118;28;20449;-44
2022/09/02 05:01:32;;;;;;;3.20;2.20;;;18.10;62.50;;;;;;5059252;28;20460;-45
2022/09/02 05:04:01;;;;;;;3.53;2.30;;;17.90;62.30;;;;;;5081168;28;20900;-45
2022/09/02 05:06:27;;;;;;;4.60;2.50;;;18.00;63.40;;;;;;5068574;28;20472;-44
2022/09/02 05:08:56;;;;;;;2.43;2.33;;;18.00;62.90;;;;;;5079252;28;20546;-44
2022/09/02 05:11:28;;;;;;;3.37;2.40;;;17.90;62.60;;;;;;5081450;28;20513;-44
2022/09/02 05:13:57;;;;;;;2.00;1.80;;;18.00;63.10;;;;;;5081420;28;20519;-44
2022/09/02 05:16:27;;;;;;;2.63;2.43;;;18.00;63.20;;;;;;5073790;28;20464;-44
2022/09/02 05:18:54;;;;;;;2.53;2.30;;;17.90;63.30;;;;;;5071970;28;20819;-44
2022/09/02 05:21:22;;;;;;;2.40;2.20;;;17.80;62.90;;;;;;5078418;28;20987;-43
2022/09/02 05:23:52;;;;;;;2.50;2.30;;;17.90;63.80;;;;;;5069232;28;21336;-50
2022/09/02 05:26:21;;;;;;;2.50;2.30;;;17.80;64.00;;;;;;5079213;28;20548;-44
2022/09/02 05:28:48;;;;;;;2.97;2.63;;;17.70;64.60;;;;;;5084305;28;20452;-44
2022/09/02 05:31:17;;;;;;;2.50;2.30;;;17.70;64.60;;;;;;5079355;28;21115;-44
2022/09/02 05:33:45;;;;;;;3.30;2.50;;;17.70;64.50;;;;;;5059298;28;20461;-44
2022/09/02 05:36:16;;;;;;;4.60;2.60;;;17.80;64.30;;;;;;5083205;28;20471;-44
2022/09/02 05:38:44;;;;;;;3.07;2.20;;;17.70;64.80;;;;;;5079588;28;20456;-44
2022/09/02 05:41:14;;;;;;;2.93;2.23;;;17.80;64.70;;;;;;5077996;28;20469;-44
2022/09/02 05:43:45;;;;;;;3.43;2.20;;;17.90;64.20;;;;;;5068962;28;20938;-44
2022/09/02 05:46:16;;;;;;;5.03;2.60;;;17.70;62.80;;;;;;5078444;28;20449;-44
2022/09/02 05:51:31;;;;;;;2.70;2.40;;;17.70;62.60;;;;;;5081065;28;20460;-44
2022/09/02 05:53:59;;;;;;;2.70;2.50;;;17.40;62.70;;;;;;5081952;28;20969;-44
2022/09/02 05:56:26;;;;;;;3.20;2.37;;;17.30;63.10;;;;;;5062042;28;20909;-44
2022/09/02 05:58:58;;;;;;;3.30;2.20;;;17.30;63.20;;;;;;5070258;28;20465;-44
2022/09/02 06:01:28;;;;;;;2.57;2.20;;;17.40;63.10;;;;;;5082643;28;20456;-44
2022/09/02 06:03:56;;;;;;;4.70;2.80;;;17.40;63.10;;;;;;5065994;28;21033;-44
2022/09/02 06:06:23;;;;;;;5.13;2.60;;;17.40;63.20;;;;;;5081999;28;20453;-44
2022/09/02 06:08:50;;;;;;;3.30;2.37;;;17.50;63.30;;;;;;5083928;28;20473;-44
2022/09/02 06:11:18;;;;;;;3.50;2.30;;;17.60;62.60;;;;;;5068611;28;20662;-44
2022/09/02 06:13:45;;;;;;;5.23;2.20;;;17.60;62.70;;;;;;5084924;28;20464;-43
2022/09/02 06:16:15;;;;;;;4.70;2.10;;;17.70;62.40;;;;;;5080637;28;20885;-44
2022/09/02 06:18:42;;;;;;;3.07;2.27;;;17.70;62.60;;;;;;5083723;28;20517;-44
2022/09/02 06:21:09;;;;;;;6.20;2.90;;;17.80;62.70;;;;;;5078115;28;20750;-44
2022/09/02 06:23:37;;;;;;;3.47;2.40;;;17.90;61.90;;;;;;5072879;28;20490;-44
2022/09/02 06:26:06;;;;;;;2.63;2.43;;;18.00;62.10;;;;;;5072307;28;21921;-44
2022/09/02 06:28:33;;;;;;;17.23;2.90;;;18.00;61.20;;;;;;5056443;28;20456;-43
2022/09/02 06:31:09;;;;;;;3.63;2.23;;;18.10;60.90;;;;;;5083180;28;20456;-43
2022/09/02 06:33:37;;;;;;;5.40;2.33;;;18.20;60.60;;;;;;5082956;28;20461;-43
2022/09/02 06:36:13;;;;;;;2.80;2.10;;;18.30;60.60;;;;;;5080715;28;20466;-43
2022/09/02 06:38:42;;;;;;;3.97;2.40;;;18.40;60.50;;;;;;5082850;28;20467;-43
2022/09/02 06:41:18;;;;;;;2.30;2.10;;;18.40;60.10;;;;;;5086868;28;20594;-44
2022/09/02 06:43:45;;;;;;;2.70;2.00;;;18.50;60.10;;;;;;5064166;28;20480;-44
2022/09/02 06:46:34;;;;;;;2.37;2.17;;;18.50;59.90;;;;;;5085316;28;20453;-44
2022/09/02 06:49:02;;;;;;;2.50;2.30;;;18.50;59.80;;;;;;5083405;28;20523;-44
2022/09/02 06:51:32;;;;;;;3.97;2.03;;;18.40;59.70;;;;;;5081530;28;20488;-43
2022/09/02 06:54:00;;;;;;;2.80;1.93;;;18.40;59.70;;;;;;5069050;28;20460;-43
2022/09/02 06:56:27;;;;;;;2.37;2.17;;;18.40;60.00;;;;;;5064273;28;20965;-43
2022/09/02 06:58:54;;;;;;;2.40;2.20;;;18.40;60.00;;;;;;5061183;28;20472;-43
2022/09/02 07:01:28;;;;;;;2.40;2.20;;;18.40;60.10;;;;;;5076945;28;20460;-43
2022/09/02 07:06:47;;;;;;;2.53;2.30;;;18.60;60.20;;;;;;5075637;28;20464;-44
2022/09/02 07:09:18;;;;;;;2.93;2.30;;;18.80;59.50;;;;;;5060821;28;20475;-44
2022/09/02 07:11:47;;;;;;;2.37;2.20;;;18.80;59.20;;;;;;5061512;28;20471;-44
2022/09/02 07:14:16;;;;;;;2.40;2.20;;;18.90;58.60;;;;;;5078389;28;20456;-44
2022/09/02 07:16:45;;;;;;;2.07;1.97;;;19.00;58.70;;;;;;5057277;28;20468;-44
2022/09/02 07:19:13;;;;;;;3.33;2.43;;;18.90;58.40;;;;;;5078420;28;20882;-44
2022/09/02 07:21:46;;;;;;;6.07;2.10;;;19.00;58.20;;;;;;5077459;28;20514;-44
2022/09/02 07:24:14;;;;;;;4.37;2.30;;;19.10;58.20;;;;;;5040882;28;20946;-44
2022/09/02 07:26:41;;;;;;;2.83;2.63;;;19.10;57.90;;;;;;5063520;28;20456;-44
2022/09/02 07:29:08;;;;;;;4.40;2.63;;;19.00;58.60;;;;;;5076137;28;20453;-44
2022/09/02 07:31:37;;;;;;;3.73;2.50;;;19.00;58.30;;;;;;5078181;28;22571;-44
2022/09/02 07:34:06;;;;;;;2.33;2.13;;;19.10;57.90;;;;;;5077253;28;20477;-44
2022/09/02 07:36:36;;;;;;;2.60;2.40;;;19.10;58.10;;;;;;5077032;28;21166;-43
2022/09/02 07:39:04;;;;;;;2.00;1.90;;;19.10;57.50;;;;;;5058544;28;20468;-44
2022/09/02 07:41:31;;;;;;;2.07;1.97;;;19.10;57.60;;;;;;5056028;28;20457;-43
2022/09/02 07:43:58;;;;;;;6.17;2.30;;;19.20;57.40;;;;;;5077262;28;20501;-43
2022/09/02 07:46:28;;;;;;;2.50;2.30;;;19.30;57.20;;;;;;5059777;28;20547;-43
2022/09/02 07:48:55;;;;;;;2.53;2.30;;;19.50;57.00;;;;;;5077307;28;20842;-44
2022/09/02 07:51:21;;;;;;;2.50;2.30;;;19.80;57.10;;;;;;5073986;28;20893;-43
2022/09/02 07:53:50;;;;;;;2.87;2.23;;;19.90;55.80;;;;;;5037943;28;20456;-43
2022/09/02 07:56:17;;;;;;;3.80;2.90;;;19.90;55.70;;;;;;5058914;28;20511;-44
2022/09/02 07:58:44;;;;;;;4.17;2.80;;;20.00;55.90;;;;;;5076024;28;20476;-43
2022/09/02 08:01:13;;;;;;;3.00;2.70;;;20.20;55.30;;;;;;5072347;28;20457;-44
2022/09/02 08:03:43;;;;;;;2.97;2.70;;;20.40;55.40;;;;;;5073445;28;20496;-45
2022/09/02 08:06:12;;;;;;;3.13;2.83;;;20.60;55.30;;;;;;5072959;28;20456;-45
2022/09/02 08:08:41;;;;;;;3.90;2.43;;;20.80;54.40;;;;;;5077482;28;20524;-45
2022/09/02 08:11:08;;;;;;;2.23;2.10;;;21.00;53.60;;;;;;5076388;28;20965;-44
2022/09/02 08:13:36;;;;;;;2.47;2.27;;;21.00;53.20;;;;;;5077143;28;20456;-44
2022/09/02 08:16:04;;;;;;;2.13;2.00;;;21.10;53.10;;;;;;5072773;28;20463;-44
2022/09/02 08:18:32;;;;;;;2.37;2.23;;;21.20;52.80;;;;;;5075195;28;21854;-44
2022/09/02 08:20:59;;;;;;;2.97;2.37;;;21.10;53.00;;;;;;5076990;28;20448;-44
2022/09/02 08:23:26;;;;;;;2.57;2.30;;;21.30;53.20;;;;;;5069418;28;20492;-44
2022/09/02 08:26:04;;;;;;;5.27;2.57;;;21.40;52.90;;;;;;5060149;28;20493;-44
2022/09/02 08:28:31;;;;;;;3.20;2.33;;;21.50;52.40;;;;;;5056747;28;20809;-44
2022/09/02 08:30:58;;;;;;;6.10;2.17;;;21.60;52.50;;;;;;5074425;28;20460;-44
2022/09/02 08:33:25;;;;;;;4.50;2.20;;;21.40;52.30;;;;;;5057789;28;20460;-44
2022/09/02 08:35:52;;;;;;;3.00;2.63;;;21.60;52.30;;;;;;5074602;28;20840;-44
2022/09/02 08:38:20;;;;;;;2.20;2.00;;;21.60;52.00;;;;;;5072857;28;20471;-44
2022/09/02 08:40:49;;;;;;;7.80;2.17;;;21.50;52.10;;;;;;5078215;28;21033;-44
2022/09/02 08:43:38;;;;;;;4.60;2.20;;;21.40;52.40;;;;;;5075243;28;20503;-44
2022/09/02 08:46:10;;;;;;;2.30;2.03;;;21.60;52.20;;;;;;5072354;28;22122;-43
2022/09/02 08:48:52;;;;;;;4.20;1.90;;;21.60;52.00;;;;;;5075984;28;20961;-43
2022/09/02 08:51:57;;;;;;;2.50;2.00;;;21.60;52.40;;;;;;5076704;28;20452;-44
2022/09/02 08:54:36;;;;;;;2.90;2.07;;;21.90;52.10;;;;;;5060125;28;20699;-44
2022/09/02 08:57:03;;;;;;;4.10;2.27;;;22.10;52.10;;;;;;5072999;28;20488;-44
2022/09/02 08:59:30;;;;;;;3.37;2.00;;;22.20;51.20;;;;;;5060966;28;20471;-44
2022/09/02 09:02:23;;;;;;;1.70;1.60;;;22.30;51.20;;;;;;5075169;28;20866;-44
2022/09/02 09:05:04;;;;;;;3.10;2.00;;;22.30;51.10;;;;;;5029586;28;20492;-44
2022/09/02 09:07:50;;;;;;;2.47;1.83;;;22.50;50.60;;;;;;5079539;28;20468;-44
2022/09/02 09:10:29;;;;;;;3.00;2.20;;;22.60;50.50;;;;;;5047151;28;20463;-44
2022/09/02 09:13:02;;;;;;;2.37;1.90;;;22.60;50.20;;;;;;5078490;28;20464;-44
2022/09/02 09:15:37;;;;;;;4.23;2.00;;;22.60;50.00;;;;;;5080518;28;20462;-44
2022/09/02 09:18:08;;;;;;;2.30;2.10;;;22.60;49.30;;;;;;5057759;28;20463;-45
2022/09/02 09:20:40;;;;;;;4.00;2.13;;;22.70;49.40;;;;;;5078904;28;20460;-44
2022/09/02 09:23:32;;;;;;;2.30;2.03;;;22.90;49.20;;;;;;5073714;28;21122;-45
2022/09/02 09:26:17;;;;;;;1.73;1.63;;;22.80;49.30;;;;;;5058558;28;20444;-45
2022/09/02 09:28:46;;;;;;;2.00;1.50;;;22.80;49.40;;;;;;5059663;28;20464;-45
2022/09/02 09:31:17;;;;;;;5.87;2.27;;;22.80;49.20;;;;;;5076708;28;20452;-44
2022/09/02 09:34:00;;;;;;;1.73;1.63;;;22.90;48.80;;;;;;5077343;28;20483;-44
2022/09/02 09:36:47;;;;;;;2.00;1.90;;;23.00;48.80;;;;;;5079635;28;20464;-44
2022/09/02 09:39:29;;;;;;;3.03;1.37;;;23.20;47.80;;;;;;5059643;28;20471;-44
2022/09/02 09:41:57;;;;;;;2.50;2.30;;;23.10;48.70;;;;;;5076851;28;20454;-44
2022/09/02 09:44:53;;;;;;;6.50;1.77;;;23.30;48.60;;;;;;5056125;28;20492;-44
2022/09/02 09:47:24;;;;;;;3.37;1.93;;;23.40;47.50;;;;;;5064795;28;20460;-44
2022/09/02 09:49:53;;;;;;;2.10;1.60;;;23.40;47.20;;;;;;5078997;28;20459;-44
2022/09/02 09:52:24;;;;;;;2.53;1.73;;;23.50;47.50;;;;;;5078141;28;20456;-44
2022/09/02 09:55:11;;;;;;;1.47;1.37;;;23.60;46.70;;;;;;5057817;28;20946;-44
2022/09/02 09:57:40;;;;;;;6.43;2.10;;;23.60;46.10;;;;;;5077411;28;20472;-44
2022/09/02 10:00:28;;;;;;;1.90;1.33;;;23.60;45.30;;;;;;5069174;28;20456;-44
2022/09/02 10:02:58;;;;;;;1.90;1.70;;;23.70;45.50;;;;;;5078478;28;20848;-45
2022/09/02 10:05:37;;;;;;;6.57;1.80;;;23.80;43.80;;;;;;5056519;28;20483;-45
2022/09/02 10:08:18;;;;;;;2.20;1.90;;;23.90;43.60;;;;;;5077651;28;20475;-45
2022/09/02 10:11:04;;;;;;;5.20;1.50;;;24.10;41.50;;;;;;5077892;28;20529;-45
2022/09/02 10:13:36;;;;;;;1.40;1.10;;;24.20;40.20;;;;;;5075315;28;20832;-45
2022/09/02 10:16:20;;;;;;;1.93;1.73;;;24.40;40.90;;;;;;5075867;28;20482;-45
2022/09/02 10:18:55;;;;;;;1.53;1.10;;;24.60;40.40;;;;;;5075769;28;20476;-45
2022/09/02 10:21:38;;;;;;;2.40;1.50;;;24.80;40.00;;;;;;5075866;28;20467;-45
2022/09/02 10:24:10;;;;;;;4.03;1.27;;;24.90;40.80;;;;;;5049376;28;20484;-45
2022/09/02 10:26:43;;;;;;;1.13;1.03;;;25.00;40.20;;;;;;5066074;28;20448;-45
2022/09/02 10:29:28;;;;;;;1.87;1.10;;;25.30;38.40;;;;;;5076203;28;20825;-45
2022/09/02 10:32:11;;;;;;;2.30;1.10;;;25.60;38.60;;;;;;5078088;28;20474;-45
2022/09/02 10:34:57;;;;;;;4.37;1.27;;;26.20;38.70;;;;;;5064329;28;21674;-45
2022/09/02 10:37:28;;;;;;;1.80;1.27;;;27.00;36.50;;;;;;5077222;28;20460;-45
2022/09/02 10:40:15;;;;;;;1.10;1.03;;;27.80;36.40;;;;;;5075445;28;20992;-45
2022/09/02 10:42:53;;;;;;;1.70;1.20;;;29.10;32.50;;;;;;5077346;28;20456;-45
2022/09/02 10:45:43;;;;;;;1.63;1.20;;;29.50;31.90;;;;;;5075164;28;20490;-45
2022/09/02 10:48:19;;;;;;;373.87;34.73;;;28.70;32.40;;;;;;5072960;28;20742;-45
2022/09/02 10:50:52;;;;;;;2.93;1.17;;;28.00;35.20;;;;;;5077804;28;20660;-45
2022/09/02 10:53:32;;;;;;;3.17;1.73;;;27.50;35.20;;;;;;5074741;28;20465;-45
2022/09/02 10:56:04;;;;;;;3.03;1.80;;;26.80;36.10;;;;;;5062382;28;20513;-45
2022/09/02 10:59:04;;;;;;;2.20;1.10;;;26.70;37.50;;;;;;5067902;28;21078;-45
2022/09/02 11:01:45;;;;;;;3.50;1.30;;;26.70;37.70;;;;;;5048854;28;20463;-45
2022/09/02 11:04:41;;;;;;;1.80;1.40;;;26.50;37.50;;;;;;5061875;28;20503;-45
2022/09/02 11:07:12;;;;;;;1.40;1.27;;;26.30;36.70;;;;;;5065349;28;20464;-45
2022/09/02 11:09:44;;;;;;;1.77;1.23;;;26.30;36.30;;;;;;5080669;28;21218;-45
2022/09/02 11:12:26;;;;;;;1.10;1.00;;;26.10;36.30;;;;;;5084207;28;20459;-45
2022/09/02 11:15:05;;;;;;;2.83;1.43;;;25.80;36.50;;;;;;5080488;28;20460;-45
2022/09/02 11:17:46;;;;;;;3.00;1.20;;;25.80;37.30;;;;;;5076082;28;20455;-45
2022/09/02 11:20:37;;;;;;;2.90;1.47;;;25.50;37.10;;;;;;5074020;28;20448;-45
2022/09/02 11:23:19;;;;;;;1.73;1.63;;;25.30;38.20;;;;;;5076378;28;20474;-45
2022/09/02 11:25:59;;;;;;;1.37;1.13;;;25.00;38.40;;;;;;5075018;28;20539;-45
2022/09/02 11:28:31;;;;;;;1.47;1.20;;;24.80;37.80;;;;;;5075004;28;20965;-45
2022/09/02 11:31:09;;;;;;;2.67;1.50;;;24.90;39.00;;;;;;5074492;28;20968;-45
2022/09/02 11:33:57;;;;;;;2.83;1.80;;;24.80;38.80;;;;;;5055997;28;20948;-45
2022/09/02 11:36:25;;;;;;;1.70;1.10;;;24.70;39.30;;;;;;5073517;28;20590;-44
2022/09/02 11:39:06;;;;;;;4.43;1.50;;;24.70;39.90;;;;;;5077564;28;20457;-44
2022/09/02 11:42:21;;;;;;;3.00;1.23;;;24.70;39.50;;;;;;5074010;28;21072;-44
2022/09/02 11:45:26;;;;;;;4.50;2.53;;;24.70;39.50;;;;;;5003925;28;20484;-44
2022/09/02 11:48:08;;;;;;;3.83;1.60;;;24.60;39.20;;;;;;5074690;28;20966;-44
2022/09/02 11:51:08;;;;;;;4.10;1.50;;;24.60;39.60;;;;;;5078953;28;20466;-45
2022/09/02 11:53:39;;;;;;;1.30;1.20;;;24.50;39.80;;;;;;5058947;28;20959;-45
2022/09/02 11:56:24;;;;;;;1.70;1.60;;;24.50;39.90;;;;;;5076216;28;21084;-45
2022/09/02 11:58:51;;;;;;;1.80;1.33;;;24.40;39.70;;;;;;5079931;28;20459;-44
2022/09/02 12:01:21;;;;;;;3.73;1.30;;;24.30;40.30;;;;;;5071915;28;20470;-44
2022/09/02 12:03:54;;;;;;;1.13;1.03;;;24.30;40.50;;;;;;5077440;28;20946;-45
2022/09/02 12:07:05;;;;;;;1.67;1.37;;;24.30;40.00;;;;;;5073626;28;20452;-45
2022/09/02 12:09:49;;;;;;;3.03;1.10;;;24.30;40.40;;;;;;5073638;28;20876;-45
2022/09/02 12:12:37;;;;;;;2.73;1.37;;;24.30;40.50;;;;;;5069647;28;20471;-45
2022/09/02 12:15:05;;;;;;;1.60;1.33;;;24.40;40.20;;;;;;5054854;28;20579;-44
2022/09/02 12:17:50;;;;;;;2.30;1.50;;;24.30;40.20;;;;;;5071847;28;20468;-44
2022/09/02 12:20:35;;;;;;;1.70;1.60;;;24.30;40.90;;;;;;5076869;28;20542;-44
2022/09/02 12:23:02;;;;;;;4.23;1.80;;;24.30;40.70;;;;;;5080552;28;20459;-44
2022/09/02 12:25:36;;;;;;;1.40;1.30;;;24.30;41.00;;;;;;5063965;28;20475;-44
2022/09/02 12:28:24;;;;;;;1.47;1.30;;;24.40;40.20;;;;;;5081114;28;20872;-44
2022/09/02 12:30:54;;;;;;;1.53;1.43;;;24.30;40.20;;;;;;5057947;28;20464;-45
2022/09/02 12:33:39;;;;;;;1.73;1.33;;;24.40;40.90;;;;;;5076621;28;20466;-45
2022/09/02 12:36:08;;;;;;;2.60;1.33;;;24.40;40.30;;;;;;5065580;28;20901;-45
2022/09/02 12:38:37;;;;;;;1.20;1.20;;;24.30;40.50;;;;;;5088085;28;20487;-45
2022/09/02 12:41:13;;;;;;;1.23;1.00;;;24.20;40.70;;;;;;5085637;28;20471;-45
2022/09/02 12:44:17;;;;;;;1.27;1.00;;;24.30;40.40;;;;;;5085686;28;20462;-45
2022/09/02 12:47:02;;;;;;;5.50;1.23;;;24.30;40.30;;;;;;5066458;28;20495;-45
2022/09/02 12:50:02;;;;;;;1.43;1.17;;;24.30;40.80;;;;;;5080487;28;20479;-44
2022/09/02 12:52:33;;;;;;;1.97;1.33;;;24.40;41.20;;;;;;5064322;28;20463;-45
2022/09/02 12:55:14;;;;;;;1.87;1.37;;;24.40;40.90;;;;;;5085417;28;20455;-44
2022/09/02 12:57:43;;;;;;;1.90;1.07;;;24.40;39.40;;;;;;5080575;28;20471;-45
2022/09/02 13:00:14;;;;;;;3.03;1.13;;;24.30;39.80;;;;;;5086253;28;20916;-45
2022/09/02 13:02:58;;;;;;;1.53;1.40;;;24.40;40.40;;;;;;5060506;28;21237;-45
2022/09/02 13:05:53;;;;;;;3.53;1.57;;;24.40;39.70;;;;;;5081792;28;20824;-45
2022/09/02 13:08:38;;;;;;;1.40;1.20;;;24.40;39.60;;;;;;5078617;28;20459;-45
2022/09/02 13:11:05;;;;;;;1.30;1.20;;;24.40;38.20;;;;;;5083132;28;20530;-45
2022/09/02 13:14:02;;;;;;;3.00;1.40;;;24.40;38.90;;;;;;5079770;28;21250;-45
2022/09/02 13:16:55;;;;;;;1.27;1.17;;;24.40;39.40;;;;;;5061739;28;20467;-45
2022/09/02 13:20:00;;;;;;;0.90;0.90;;;24.40;39.50;;;;;;5074868;28;20471;-45
2022/09/02 13:22:42;;;;;;;2.10;1.70;;;24.40;39.30;;;;;;5065541;28;20470;-45